Aviation Digital Data Service (ADDS)

Output produced by METARs form (0005 UTC 24 May 2022)
found at http://www.aviationweather.gov/metar/data/
 
TAF SLCO 231600Z 2318/2418 34006KT 9999 SCT023 SCT080 TX31/2318Z TN20/2411Z 
     BECMG 2321/2400 00000KT 
     BECMG 2413/2416 33006KT SCT023
       
TAF SLCB 232200Z 2400/2424 12010KT 9999 NSC TX27/2419Z TN00/2411Z 
     BECMG 2402/2404 00000KT 
     BECMG 2415/2417 24010KT
       
TAF SLLP 232200Z 2400/2424 35006KT 9999 NSC TX14/2419Z TNM07/2411Z 
     BECMG 2413/2416 27010KT
       
TAF SLET 232200Z 2400/2424 32012KT 9999 SCT017 SCT080 TX31/2420Z TN20/2410Z 
     TEMPO 2407/2411 SCT010 BKN015 
     BECMG 2415/2418 32020G35KT SCT015 BKN023 
     BECMG 2421/2424 32012G23KT SCT017 SCT070
       
TAF SLVR 232200Z 2400/2424 34012KT 9999 SCT017 SCT080 TX31/2420Z TN20/2410Z 
     TEMPO 2407/2411 SCT010 BKN015 
     BECMG 2415/2418 34020G35KT SCT015 BKN023 
     BECMG 2421/2424 34012G23KT SCT017 SCT070
       
TAF SLTJ 232200Z 2400/2424 00000KT 9999 NSC TX29/2419Z TN00/2411Z 
     BECMG 2416/2418 12010KT
       
TAF SLTR 232200Z 2400/2424 00000KT 8000 FEW023 SCT080 TX30/2418Z TN19/2411Z 
     BECMG 2413/2416 33008KT